createdAt,value
2019-04-21T00:00:24.515Z,53.50
2019-04-21T00:02:59.592Z,53.50
2019-04-21T00:05:53.267Z,53.40
2019-04-21T00:08:28.888Z,53.80
2019-04-21T00:11:05.898Z,53.70
2019-04-21T00:13:27.349Z,53.80
2019-04-21T00:15:57.125Z,54.10
2019-04-21T00:18:53.440Z,54.20
2019-04-21T00:21:23.810Z,54.00
2019-04-21T00:24:01.318Z,54.00
2019-04-21T00:26:53.197Z,54.10
2019-04-21T00:29:31.411Z,54.20
2019-04-21T00:31:55.019Z,54.00
2019-04-21T00:34:13.282Z,54.30
2019-04-21T00:36:53.498Z,54.50
2019-04-21T00:39:45.083Z,54.50
2019-04-21T00:42:05.504Z,54.70
2019-04-21T00:44:36.663Z,54.80
2019-04-21T00:47:38.755Z,55.20
2019-04-21T00:50:03.571Z,55.30
2019-04-21T00:53:05.541Z,55.30
2019-04-21T00:58:23.893Z,55.60
2019-04-21T01:00:51.189Z,56.40
2019-04-21T01:03:26.411Z,56.70
2019-04-21T01:06:11.764Z,57.10
2019-04-21T01:08:25.259Z,57.70
2019-04-21T01:11:18.852Z,58.00
2019-04-21T01:13:53.131Z,58.50
2019-04-21T01:16:25.645Z,59.80
2019-04-21T01:18:49.245Z,60.60
2019-04-21T01:21:13.434Z,60.10
2019-04-21T01:23:35.763Z,60.40
2019-04-21T01:26:18.327Z,60.10
2019-04-21T01:28:57.621Z,60.10
2019-04-21T01:31:25.805Z,60.10
2019-04-21T01:34:02.847Z,60.30
2019-04-21T01:36:38.840Z,60.20
2019-04-21T01:39:15.006Z,60.70
2019-04-21T01:41:49.490Z,61.10
2019-04-21T01:44:22.430Z,61.60
2019-04-21T01:46:39.321Z,61.90
2019-04-21T01:49:14.407Z,61.90
2019-04-21T01:52:06.613Z,62.50
2019-04-21T01:54:43.200Z,62.40
2019-04-21T01:57:17.321Z,62.40
2019-04-21T01:59:42.581Z,62.90
2019-04-21T02:02:23.029Z,62.80
2019-04-21T02:04:57.966Z,62.30
2019-04-21T02:07:27.514Z,63.70
2019-04-21T02:10:02.891Z,62.70
2019-04-21T02:12:26.580Z,62.90
2019-04-21T02:15:16.883Z,62.70
2019-04-21T02:17:29.712Z,63.20
2019-04-21T02:19:57.599Z,62.20
2019-04-21T02:22:56.099Z,61.90
2019-04-21T02:25:11.309Z,62.00
2019-04-21T02:27:42.961Z,62.10
2019-04-21T02:30:24.262Z,62.10
2019-04-21T02:35:30.214Z,61.40
2019-04-21T02:38:13.987Z,61.10
2019-04-21T02:40:29.727Z,61.60
2019-04-21T02:43:07.134Z,61.90
2019-04-21T02:48:04.401Z,61.90
2019-04-21T02:50:45.150Z,62.30
2019-04-21T02:53:03.581Z,63.20
2019-04-21T02:55:29.061Z,63.20
2019-04-21T03:00:59.679Z,63.80
2019-04-21T03:03:46.321Z,64.00
2019-04-21T03:06:27.047Z,63.70
2019-04-21T03:11:35.020Z,63.60
2019-04-21T03:19:06.818Z,64.00
2019-04-21T03:21:29.167Z,63.50
2019-04-21T03:24:13.750Z,63.60
2019-04-21T03:26:40.369Z,63.60
2019-04-21T03:29:05.888Z,63.30
2019-04-21T03:39:01.364Z,64.00
2019-04-21T03:42:04.027Z,64.00
2019-04-21T03:44:22.928Z,63.90
2019-04-21T03:47:04.485Z,64.20
2019-04-21T03:52:09.058Z,65.40
2019-04-21T03:54:27.005Z,65.70
2019-04-21T03:57:10.976Z,66.50
2019-04-21T03:59:38.828Z,66.80
2019-04-21T04:02:14.905Z,67.00
2019-04-21T04:05:35.968Z,66.60
2019-04-21T04:10:34.460Z,66.10
2019-04-21T04:12:54.633Z,67.20
2019-04-21T04:18:16.666Z,66.00
2019-04-21T04:22:56.285Z,66.20
2019-04-21T04:25:43.016Z,66.00
2019-04-21T04:30:30.602Z,65.60
2019-04-21T04:32:56.654Z,65.10
2019-04-21T04:35:38.397Z,65.40
2019-04-21T04:38:07.080Z,65.60
2019-04-21T04:40:42.455Z,66.00
2019-04-21T04:43:19.380Z,65.60
2019-04-21T04:48:19.345Z,66.00
2019-04-21T04:50:49.403Z,65.40
2019-04-21T04:53:20.352Z,65.40
2019-04-21T04:56:08.113Z,65.20
2019-04-21T04:58:19.190Z,65.40
2019-04-21T05:01:00.384Z,65.40
2019-04-21T05:03:34.739Z,65.30
2019-04-21T05:06:34.518Z,65.10
2019-04-21T05:14:02.636Z,64.40
2019-04-21T05:23:55.909Z,63.80
2019-04-21T05:26:28.558Z,63.50
2019-04-21T05:28:56.564Z,63.00
2019-04-21T05:32:11.826Z,62.80
2019-04-21T05:34:27.168Z,62.70
2019-04-21T05:37:01.022Z,62.80
2019-04-21T05:39:49.503Z,62.60
2019-04-21T05:42:15.360Z,62.60
2019-04-21T05:45:01.714Z,62.10
2019-04-21T05:47:55.867Z,61.30
2019-04-21T05:50:06.458Z,60.80
2019-04-21T05:52:50.370Z,60.30
2019-04-21T05:55:34.305Z,60.80
2019-04-21T05:57:57.273Z,60.40
2019-04-21T06:00:52.889Z,60.20
2019-04-21T06:03:09.925Z,60.50
2019-04-21T06:06:00.381Z,61.00
2019-04-21T06:08:25.326Z,61.50
2019-04-21T06:11:00.288Z,60.30
2019-04-21T06:13:39.798Z,60.00
2019-04-21T06:16:07.337Z,60.10
2019-04-21T06:21:10.829Z,58.70
2019-04-21T06:23:45.614Z,59.00
2019-04-21T06:26:44.773Z,59.00
2019-04-21T06:31:43.718Z,59.10
2019-04-21T06:34:03.723Z,58.40
2019-04-21T06:36:36.366Z,58.00
2019-04-21T06:39:19.586Z,57.50
2019-04-21T06:41:33.874Z,57.10
2019-04-21T06:44:08.222Z,56.70
2019-04-21T06:46:35.212Z,57.10
2019-04-21T06:49:03.155Z,56.30
2019-04-21T06:51:38.971Z,56.50
2019-04-21T06:54:10.114Z,56.00
2019-04-21T06:56:48.358Z,56.30
2019-04-21T06:59:24.185Z,55.60
2019-04-21T07:02:01.215Z,55.00
2019-04-21T07:04:20.231Z,54.80
2019-04-21T07:09:22.437Z,55.00
2019-04-21T07:11:42.525Z,54.00
2019-04-21T07:14:30.101Z,53.70
2019-04-21T07:16:52.955Z,54.10
2019-04-21T07:19:30.324Z,53.70
2019-04-21T07:21:52.538Z,53.20
2019-04-21T07:24:27.536Z,53.00
2019-04-21T07:26:57.145Z,53.30
2019-04-21T07:29:28.308Z,53.60
2019-04-21T07:31:59.260Z,53.30
2019-04-21T07:39:30.082Z,51.80
2019-04-21T07:42:02.185Z,52.00
2019-04-21T07:44:29.127Z,52.20
2019-04-21T07:47:11.812Z,52.20
2019-04-21T07:50:00.917Z,51.20
2019-04-21T07:53:01.145Z,50.80
2019-04-21T07:57:55.966Z,51.10
2019-04-21T08:00:37.445Z,50.70
2019-04-21T08:03:12.883Z,51.00
2019-04-21T08:05:39.164Z,50.60
2019-04-21T08:08:01.554Z,50.10
2019-04-21T08:10:47.148Z,50.60
2019-04-21T08:13:22.015Z,50.50
2019-04-21T08:16:04.735Z,50.60
2019-04-21T08:18:21.037Z,50.30
2019-04-21T08:20:48.009Z,50.10
2019-04-21T08:23:43.415Z,50.30
2019-04-21T08:26:34.167Z,50.30
2019-04-21T08:28:45.731Z,49.80
2019-04-21T08:31:25.737Z,49.90
2019-04-21T08:33:55.401Z,49.70
2019-04-21T08:41:31.603Z,49.50
2019-04-21T08:43:59.004Z,49.20
2019-04-21T08:46:36.750Z,49.60
2019-04-21T08:59:18.906Z,48.20
2019-04-21T09:14:54.218Z,47.10
2019-04-21T09:17:20.582Z,46.60
2019-04-21T09:20:07.602Z,46.10
2019-04-21T09:22:30.231Z,45.60
2019-04-21T09:25:01.660Z,44.50
2019-04-21T09:27:30.710Z,44.70
2019-04-21T09:29:52.352Z,44.30
2019-04-21T09:32:20.305Z,43.00
2019-04-21T09:34:48.919Z,44.20
2019-04-21T09:37:28.658Z,44.00
2019-04-21T09:39:53.463Z,44.00
2019-04-21T09:42:21.894Z,43.00
2019-04-21T09:44:55.657Z,42.90
2019-04-21T09:47:24.942Z,42.70
2019-04-21T09:49:54.547Z,43.10
2019-04-21T09:52:30.315Z,43.10
2019-04-21T09:55:03.949Z,42.20
2019-04-21T09:57:35.042Z,41.50
2019-04-21T10:00:04.937Z,41.80
2019-04-21T10:02:38.766Z,41.70
2019-04-21T10:04:59.538Z,42.00
2019-04-21T10:07:34.999Z,41.60
2019-04-21T10:10:00.227Z,41.60
2019-04-21T10:12:30.679Z,42.00
2019-04-21T10:15:00.313Z,40.70
2019-04-21T10:17:34.761Z,39.60
2019-04-21T10:20:05.358Z,41.60
2019-04-21T10:22:35.121Z,40.40
2019-04-21T10:25:07.422Z,40.40
2019-04-21T10:27:39.283Z,39.70
2019-04-21T10:30:12.176Z,38.80
2019-04-21T10:32:42.685Z,38.00
2019-04-21T10:35:12.866Z,37.70
2019-04-21T10:37:53.597Z,37.90
2019-04-21T10:40:13.710Z,37.50
2019-04-21T10:42:43.236Z,36.90
2019-04-21T10:45:13.158Z,37.70
2019-04-21T10:47:43.055Z,37.00
2019-04-21T10:50:13.121Z,36.40
2019-04-21T10:53:00.868Z,38.40
2019-04-21T10:55:44.397Z,37.20
2019-04-21T10:58:10.820Z,37.80
2019-04-21T11:00:41.957Z,38.30
2019-04-21T11:03:29.237Z,38.20
2019-04-21T11:05:59.004Z,38.40
2019-04-21T11:08:34.147Z,39.00
2019-04-21T11:10:59.413Z,39.50
2019-04-21T11:13:28.819Z,39.00
2019-04-21T11:16:01.181Z,38.30
2019-04-21T11:18:31.715Z,38.40
2019-04-21T11:21:01.197Z,38.20
2019-04-21T11:23:31.296Z,38.20
2019-04-21T11:26:01.851Z,38.10
2019-04-21T11:28:31.806Z,37.90
2019-04-21T11:31:02.583Z,38.60
2019-04-21T11:33:33.305Z,38.50
2019-04-21T11:36:03.562Z,38.80
2019-04-21T11:39:08.365Z,38.20
2019-04-21T11:41:29.818Z,37.40
2019-04-21T11:43:59.297Z,38.90
2019-04-21T11:46:28.764Z,38.90
2019-04-21T11:48:58.150Z,39.20
2019-04-21T11:51:28.891Z,39.10
2019-04-21T11:53:59.173Z,37.70
2019-04-21T11:56:28.713Z,39.30
2019-04-21T11:58:59.548Z,38.50
2019-04-21T12:01:29.730Z,38.10
2019-04-21T12:03:59.963Z,39.10
2019-04-21T12:06:37.542Z,39.10
2019-04-21T12:09:02.886Z,38.20
2019-04-21T12:11:31.482Z,38.10
2019-04-21T12:14:00.839Z,38.70
2019-04-21T12:16:30.811Z,38.90
2019-04-21T12:19:00.939Z,39.30
2019-04-21T12:21:45.127Z,39.70
2019-04-21T12:24:02.622Z,39.90
2019-04-21T12:26:33.871Z,39.50
2019-04-21T12:29:03.909Z,39.60
2019-04-21T12:32:10.633Z,40.50
2019-04-21T12:34:40.033Z,40.10
2019-04-21T12:37:10.661Z,40.50
2019-04-21T12:39:44.961Z,39.70
2019-04-21T12:42:14.511Z,39.50
2019-04-21T12:44:43.841Z,40.20
2019-04-21T12:47:14.149Z,39.80
2019-04-21T12:49:43.985Z,40.20
2019-04-21T12:52:13.579Z,40.70
2019-04-21T12:54:43.920Z,40.30
2019-04-21T12:57:13.810Z,40.50
2019-04-21T12:59:44.605Z,41.20
2019-04-21T13:02:17.785Z,41.20
2019-04-21T13:04:46.142Z,41.10
2019-04-21T13:07:15.617Z,41.10
2019-04-21T13:09:46.245Z,41.70
2019-04-21T13:12:15.615Z,40.70
2019-04-21T13:14:44.934Z,41.00
2019-04-21T13:17:15.252Z,41.60
2019-04-21T13:19:45.306Z,41.80
2019-04-21T13:22:14.622Z,42.00
2019-04-21T13:24:44.092Z,41.30
2019-04-21T13:27:13.598Z,42.10
2019-04-21T13:29:44.027Z,41.90
2019-04-21T13:32:14.367Z,42.30
2019-04-21T13:34:44.265Z,41.50
2019-04-21T13:37:15.145Z,41.50
2019-04-21T13:40:16.461Z,42.20
2019-04-21T13:42:36.691Z,42.10
2019-04-21T13:45:02.220Z,41.70
2019-04-21T13:47:30.489Z,42.60
2019-04-21T13:50:02.916Z,42.10
2019-04-21T13:52:31.263Z,42.00
2019-04-21T13:55:01.239Z,42.00
2019-04-21T13:57:30.627Z,41.20
2019-04-21T14:00:01.287Z,41.80
2019-04-21T14:02:31.093Z,42.20
2019-04-21T14:05:03.465Z,41.80
2019-04-21T14:07:34.307Z,42.00
2019-04-21T14:10:07.171Z,42.20
2019-04-21T14:12:36.171Z,41.80
2019-04-21T14:15:06.248Z,42.10
2019-04-21T14:17:36.934Z,41.10
2019-04-21T14:20:06.983Z,41.00
2019-04-21T14:22:37.963Z,41.40
2019-04-21T14:25:07.951Z,41.00
2019-04-21T14:27:41.818Z,41.40
2019-04-21T14:30:12.275Z,41.70
2019-04-21T14:32:42.090Z,41.80
2019-04-21T14:35:12.546Z,41.30
2019-04-21T14:37:42.552Z,40.80
2019-04-21T14:40:16.414Z,40.80
2019-04-21T14:42:42.815Z,40.70
2019-04-21T14:45:22.981Z,40.40
2019-04-21T14:47:59.309Z,40.70
2019-04-21T14:50:50.693Z,40.50
2019-04-21T14:53:23.575Z,40.20
2019-04-21T14:55:55.527Z,40.90
2019-04-21T14:58:27.383Z,40.80
2019-04-21T15:01:01.983Z,40.60
2019-04-21T15:03:32.082Z,41.00
2019-04-21T15:06:01.503Z,41.20
2019-04-21T15:08:31.336Z,40.00
2019-04-21T15:11:01.079Z,39.90
2019-04-21T15:13:30.525Z,40.60
2019-04-21T15:16:00.597Z,39.90
2019-04-21T15:18:30.558Z,39.10
2019-04-21T15:21:01.373Z,40.10
2019-04-21T15:23:33.969Z,40.30
2019-04-21T15:26:04.167Z,40.20
2019-04-21T15:28:35.350Z,40.30
2019-04-21T15:31:04.923Z,40.30
2019-04-21T15:33:34.956Z,40.40
2019-04-21T15:36:05.097Z,40.30
2019-04-21T15:38:35.808Z,40.30
2019-04-21T15:41:10.125Z,40.50
2019-04-21T15:43:36.401Z,40.60
2019-04-21T15:46:06.793Z,41.00
2019-04-21T15:48:39.211Z,41.40
2019-04-21T15:51:11.133Z,41.20
2019-04-21T15:53:41.763Z,40.90
2019-04-21T15:56:31.064Z,40.30
2019-04-21T15:59:08.383Z,40.50
2019-04-21T16:01:56.723Z,40.60
2019-04-21T16:04:26.251Z,40.30
2019-04-21T16:06:55.572Z,40.90
2019-04-21T16:09:26.905Z,41.10
2019-04-21T16:11:55.869Z,39.70
2019-04-21T16:14:25.148Z,39.90
2019-04-21T16:16:54.551Z,41.10
2019-04-21T16:19:24.960Z,41.30
2019-04-21T16:21:54.749Z,40.70
2019-04-21T16:24:25.291Z,40.50
2019-04-21T16:26:56.349Z,40.90
2019-04-21T16:29:27.037Z,40.90
2019-04-21T16:31:57.389Z,41.10
2019-04-21T16:34:39.275Z,40.90
2019-04-21T16:37:01.490Z,40.50
2019-04-21T16:39:31.544Z,40.50
2019-04-21T16:42:00.855Z,40.60
2019-04-21T16:44:31.307Z,40.60
2019-04-21T16:47:01.337Z,41.10
2019-04-21T16:49:31.749Z,41.00
2019-04-21T16:52:20.349Z,41.00
2019-04-21T16:54:54.084Z,40.30
2019-04-21T16:57:28.298Z,41.10
2019-04-21T17:00:02.473Z,40.70
2019-04-21T17:02:32.491Z,40.90
2019-04-21T17:05:07.183Z,40.80
2019-04-21T17:07:36.774Z,40.00
2019-04-21T17:10:06.617Z,40.30
2019-04-21T17:12:37.389Z,40.00
2019-04-21T17:15:21.410Z,40.00
2019-04-21T17:18:00.729Z,40.20
2019-04-21T17:20:19.240Z,39.40
2019-04-21T17:22:41.644Z,39.70
2019-04-21T17:25:11.062Z,40.00
2019-04-21T17:27:40.780Z,40.40
2019-04-21T17:30:10.565Z,40.50
2019-04-21T17:32:43.268Z,40.80
2019-04-21T17:35:12.159Z,41.80
2019-04-21T17:37:42.322Z,42.80
2019-04-21T17:40:11.742Z,42.90
2019-04-21T17:42:46.453Z,43.30
2019-04-21T17:45:13.080Z,43.30
2019-04-21T17:47:49.920Z,43.60
2019-04-21T17:50:27.391Z,43.70
2019-04-21T17:53:06.616Z,43.90
2019-04-21T17:55:36.752Z,43.80
2019-04-21T17:58:15.007Z,44.00
2019-04-21T18:01:12.871Z,44.80
2019-04-21T18:03:40.267Z,44.20
2019-04-21T18:05:55.894Z,44.30
2019-04-21T18:08:42.997Z,43.50
2019-04-21T18:11:03.620Z,43.70
2019-04-21T18:13:25.060Z,43.90
2019-04-21T18:16:08.333Z,43.60
2019-04-21T18:18:24.795Z,43.50
2019-04-21T18:21:00.732Z,43.10
2019-04-21T18:23:46.883Z,43.40
2019-04-21T18:26:23.569Z,43.00
2019-04-21T18:28:40.924Z,42.80
2019-04-21T18:31:12.746Z,43.00
2019-04-21T18:33:47.846Z,42.70
2019-04-21T18:36:42.307Z,43.30
2019-04-21T18:39:46.322Z,43.20
2019-04-21T18:42:29.386Z,43.10
2019-04-21T18:47:59.551Z,43.50
2019-04-21T18:50:41.830Z,43.70
2019-04-21T18:53:27.046Z,43.40
2019-04-21T18:55:48.157Z,43.50
2019-04-21T18:58:15.949Z,43.50
2019-04-21T19:00:45.871Z,43.50
2019-04-21T19:03:25.321Z,43.60
2019-04-21T19:05:53.821Z,43.40
2019-04-21T19:08:32.807Z,43.60
2019-04-21T19:11:10.303Z,43.10
2019-04-21T19:14:11.361Z,43.30
2019-04-21T19:16:33.202Z,43.50
2019-04-21T19:19:18.497Z,43.40
2019-04-21T19:21:24.769Z,43.10
2019-04-21T19:24:10.258Z,43.20
2019-04-21T19:26:39.813Z,43.30
2019-04-21T19:29:12.513Z,43.00
2019-04-21T19:31:38.274Z,43.70
2019-04-21T19:34:02.592Z,43.80
2019-04-21T19:36:23.720Z,43.80
2019-04-21T19:39:03.465Z,43.90
2019-04-21T19:41:38.597Z,44.10
2019-04-21T19:44:16.008Z,44.00
2019-04-21T19:46:40.944Z,44.30
2019-04-21T19:49:21.103Z,44.40
2019-04-21T19:51:40.582Z,44.40
2019-04-21T19:54:07.720Z,44.20
2019-04-21T19:56:30.263Z,44.20
2019-04-21T19:59:01.169Z,44.30
2019-04-21T20:01:31.866Z,44.20
2019-04-21T20:04:02.708Z,44.30
2019-04-21T20:06:45.577Z,44.10
2019-04-21T20:09:21.891Z,43.80
2019-04-21T20:11:52.410Z,43.90
2019-04-21T20:16:52.839Z,44.20
2019-04-21T20:19:12.629Z,44.20
2019-04-21T20:21:43.097Z,44.20
2019-04-21T20:24:16.629Z,44.30
2019-04-21T20:26:52.020Z,44.40
2019-04-21T20:29:32.519Z,44.60
2019-04-21T20:32:10.564Z,44.70
2019-04-21T20:34:34.250Z,44.80
2019-04-21T20:37:09.588Z,45.00
2019-04-21T20:39:27.299Z,45.10
2019-04-21T20:42:08.629Z,45.30
2019-04-21T20:44:40.256Z,45.50
2019-04-21T20:47:07.413Z,46.00
2019-04-21T20:49:40.849Z,46.00
2019-04-21T20:52:18.978Z,46.10
2019-04-21T20:54:45.230Z,46.00
2019-04-21T20:57:18.414Z,46.10
2019-04-21T20:59:43.838Z,46.60
2019-04-21T21:02:17.680Z,46.60
2019-04-21T21:04:43.491Z,46.70
2019-04-21T21:07:34.616Z,46.90
2019-04-21T21:09:57.460Z,47.20
2019-04-21T21:12:27.655Z,47.20
2019-04-21T21:14:49.006Z,47.20
2019-04-21T21:17:41.872Z,47.50
2019-04-21T21:19:59.695Z,47.60
2019-04-21T21:22:26.130Z,47.80
2019-04-21T21:25:00.158Z,47.80
2019-04-21T21:27:26.845Z,48.20
2019-04-21T21:29:58.389Z,48.10
2019-04-21T21:32:31.716Z,48.10
2019-04-21T21:35:03.505Z,48.20
2019-04-21T21:37:36.308Z,48.40
2019-04-21T21:40:11.376Z,48.80
2019-04-21T21:42:27.591Z,48.60
2019-04-21T21:45:00.462Z,48.70
2019-04-21T21:47:44.718Z,49.00
2019-04-21T21:50:06.470Z,49.30
2019-04-21T21:52:43.027Z,49.80
2019-04-21T21:54:55.905Z,49.20
2019-04-21T21:57:26.157Z,49.30
2019-04-21T21:59:59.702Z,49.60
2019-04-21T22:02:34.975Z,49.80
2019-04-21T22:05:05.348Z,49.50
2019-04-21T22:07:31.756Z,49.80
2019-04-21T22:10:00.054Z,49.90
2019-04-21T22:12:42.842Z,50.00
2019-04-21T22:15:03.347Z,50.00
2019-04-21T22:17:44.645Z,50.30
2019-04-21T22:20:22.534Z,50.60
2019-04-21T22:22:45.127Z,51.00
2019-04-21T22:25:11.817Z,51.00
2019-04-21T22:27:35.025Z,51.40
2019-04-21T22:30:08.998Z,51.70
2019-04-21T22:32:36.828Z,51.90
2019-04-21T22:35:09.868Z,52.00
2019-04-21T22:37:48.775Z,52.10
2019-04-21T22:40:20.568Z,52.40
2019-04-21T22:42:53.615Z,52.60
2019-04-21T22:45:13.456Z,52.60
2019-04-21T22:47:44.482Z,52.70
2019-04-21T22:50:24.545Z,52.90
2019-04-21T22:53:00.380Z,52.80
2019-04-21T22:55:29.106Z,52.80
2019-04-21T22:57:58.684Z,52.80
2019-04-21T23:00:31.312Z,53.00
2019-04-21T23:03:04.822Z,52.90
2019-04-21T23:05:35.589Z,53.10
2019-04-21T23:08:03.302Z,53.10
2019-04-21T23:10:31.499Z,53.20
2019-04-21T23:13:07.084Z,53.90
2019-04-21T23:15:39.556Z,53.80
2019-04-21T23:18:22.031Z,54.60
2019-04-21T23:20:56.421Z,54.20
2019-04-21T23:23:23.895Z,54.00
2019-04-21T23:25:45.908Z,54.30
2019-04-21T23:28:20.884Z,54.20
2019-04-21T23:31:05.214Z,54.50
2019-04-21T23:33:12.295Z,54.50
2019-04-21T23:35:43.470Z,54.50
2019-04-21T23:38:10.991Z,54.80
2019-04-21T23:40:48.502Z,54.90
2019-04-21T23:43:21.360Z,54.90
2019-04-21T23:45:48.294Z,55.00
2019-04-21T23:48:28.855Z,55.00
2019-04-21T23:50:55.033Z,55.00
2019-04-21T23:53:19.743Z,55.40
2019-04-21T23:55:49.476Z,55.30
2019-04-21T23:58:24.061Z,55.00
